createdAt,value
2019-04-04T00:00:58.752Z,101034.91
2019-04-04T00:03:29.813Z,101031.86
2019-04-04T00:06:01.991Z,101037.13
2019-04-04T00:08:32.998Z,101031.40
2019-04-04T00:11:05.924Z,101033.16
2019-04-04T00:13:36.651Z,101031.86
2019-04-04T00:16:08.551Z,101033.17
2019-04-04T00:18:39.850Z,101031.84
2019-04-04T00:21:10.857Z,101023.94
2019-04-04T00:23:41.888Z,101023.05
2019-04-04T00:26:12.887Z,101022.16
2019-04-04T00:28:44.047Z,101023.49
2019-04-04T00:31:18.843Z,101018.22
2019-04-04T00:33:49.434Z,101024.81
2019-04-04T00:36:20.447Z,101022.61
2019-04-04T00:38:51.488Z,101019.09
2019-04-04T00:41:22.478Z,101015.14
2019-04-04T00:43:53.521Z,101023.07
2019-04-04T00:46:25.701Z,101019.95
2019-04-04T00:48:56.680Z,101019.11
2019-04-04T00:51:27.613Z,101017.34
2019-04-04T00:53:58.585Z,101019.55
2019-04-04T00:56:29.523Z,101016.45
2019-04-04T00:59:00.632Z,101018.66
2019-04-04T01:01:31.583Z,101023.48
2019-04-04T01:04:02.666Z,101012.92
2019-04-04T01:06:34.295Z,101017.32
2019-04-04T01:09:11.351Z,101017.76
2019-04-04T01:11:39.183Z,101018.66
2019-04-04T01:14:10.230Z,101012.92
2019-04-04T01:16:42.205Z,101015.53
2019-04-04T01:19:13.292Z,101010.27
2019-04-04T01:21:44.315Z,101011.58
2019-04-04T01:24:15.369Z,101010.27
2019-04-04T01:26:46.408Z,101008.06
2019-04-04T01:29:17.442Z,101012.02
2019-04-04T01:31:48.380Z,101007.63
2019-04-04T01:34:20.936Z,101006.30
2019-04-04T01:36:52.097Z,101009.34
2019-04-04T01:39:23.042Z,100998.80
2019-04-04T01:41:53.983Z,101002.73
2019-04-04T01:44:24.946Z,101009.31
2019-04-04T01:46:55.898Z,101006.23
2019-04-04T01:49:26.968Z,101005.80
2019-04-04T01:51:58.008Z,100999.65
2019-04-04T01:54:31.886Z,101002.73
2019-04-04T01:57:02.584Z,101013.65
2019-04-04T01:59:33.551Z,101010.14
2019-04-04T02:02:04.851Z,100993.87
2019-04-04T02:04:35.878Z,101013.61
2019-04-04T02:07:06.892Z,101017.53
2019-04-04T02:09:37.843Z,101014.43
2019-04-04T02:12:08.872Z,101011.83
2019-04-04T02:14:42.752Z,101015.31
2019-04-04T02:17:13.539Z,101014.02
2019-04-04T02:19:44.641Z,101012.23
2019-04-04T02:22:15.575Z,101010.92
2019-04-04T02:24:46.546Z,101012.21
2019-04-04T02:27:17.470Z,101004.73
2019-04-04T02:29:48.498Z,101009.11
2019-04-04T02:32:21.055Z,101010.44
2019-04-04T02:34:52.017Z,101009.14
2019-04-04T02:37:24.091Z,101005.61
2019-04-04T02:39:55.042Z,101004.70
2019-04-04T02:42:25.985Z,101002.45
2019-04-04T02:44:57.090Z,101003.80
2019-04-04T02:47:28.059Z,101007.71
2019-04-04T02:50:01.067Z,101006.80
2019-04-04T02:52:31.701Z,101009.44
2019-04-04T02:55:02.818Z,101002.86
2019-04-04T02:57:33.838Z,101007.23
2019-04-04T03:00:06.304Z,101006.36
2019-04-04T03:02:38.249Z,101014.66
2019-04-04T03:05:09.374Z,101010.71
2019-04-04T03:07:40.286Z,101013.34
2019-04-04T03:10:15.314Z,101005.92
2019-04-04T03:12:43.876Z,101008.59
2019-04-04T03:15:14.851Z,101011.66
2019-04-04T03:17:46.633Z,101008.15
2019-04-04T03:20:17.832Z,101011.19
2019-04-04T03:22:49.180Z,101008.08
2019-04-04T03:25:20.426Z,101015.46
2019-04-04T03:27:51.704Z,101013.23
2019-04-04T03:30:22.633Z,101018.09
2019-04-04T03:32:54.987Z,101014.59
2019-04-04T03:35:28.637Z,101016.34
2019-04-04T03:37:59.011Z,101017.57
2019-04-04T03:40:30.026Z,101014.11
2019-04-04T03:43:01.095Z,101017.17
2019-04-04T03:45:32.166Z,101018.93
2019-04-04T03:48:03.083Z,101018.05
2019-04-04T03:50:34.052Z,101021.16
2019-04-04T03:53:04.976Z,101022.91
2019-04-04T03:55:36.105Z,101025.94
2019-04-04T03:58:07.042Z,101032.03
2019-04-04T04:00:40.307Z,101025.94
2019-04-04T04:03:10.622Z,101028.12
2019-04-04T04:05:41.668Z,101030.40
2019-04-04T04:08:12.585Z,101037.45
2019-04-04T04:10:43.561Z,101028.72
2019-04-04T04:13:17.347Z,101032.30
2019-04-04T04:15:47.312Z,101030.63
2019-04-04T04:18:21.447Z,101031.09
2019-04-04T04:20:52.037Z,101031.56
2019-04-04T04:23:24.138Z,101029.45
2019-04-04T04:25:55.445Z,101025.98
2019-04-04T04:28:26.337Z,101024.27
2019-04-04T04:30:57.422Z,101019.84
2019-04-04T04:33:29.378Z,101032.16
2019-04-04T04:36:00.964Z,101028.67
2019-04-04T04:38:31.959Z,101028.25
2019-04-04T04:41:02.915Z,101024.75
2019-04-04T04:43:33.975Z,101030.91
2019-04-04T04:46:04.894Z,101032.22
2019-04-04T04:48:35.801Z,101029.61
2019-04-04T04:51:06.763Z,101033.11
2019-04-04T04:53:37.698Z,101037.08
2019-04-04T04:56:08.652Z,101033.59
2019-04-04T04:58:41.774Z,101032.28
2019-04-04T05:01:12.248Z,101031.41
2019-04-04T05:03:43.151Z,101031.85
2019-04-04T05:06:14.114Z,101030.52
2019-04-04T05:08:45.124Z,101021.25
2019-04-04T05:11:16.840Z,101026.45
2019-04-04T05:13:48.831Z,101024.22
2019-04-04T05:16:19.867Z,101030.72
2019-04-04T05:18:51.649Z,101028.45
2019-04-04T05:21:25.437Z,101026.56
2019-04-04T05:23:55.302Z,101023.16
2019-04-04T05:26:26.281Z,101024.54
2019-04-04T05:28:57.405Z,101027.40
2019-04-04T05:31:28.447Z,101025.59
2019-04-04T05:33:59.806Z,101020.61
2019-04-04T05:36:30.950Z,101027.13
2019-04-04T05:39:01.856Z,101021.27
2019-04-04T05:41:33.168Z,101023.40
2019-04-04T05:44:04.100Z,101018.98
2019-04-04T05:46:35.033Z,101020.77
2019-04-04T05:49:08.137Z,101021.42
2019-04-04T05:51:38.639Z,101021.20
2019-04-04T05:54:09.549Z,101022.84
2019-04-04T05:56:40.617Z,101026.72
2019-04-04T05:59:11.625Z,101029.22
2019-04-04T06:01:42.655Z,101028.31
2019-04-04T06:04:14.557Z,101027.66
2019-04-04T06:06:45.582Z,101034.16
2019-04-04T06:09:16.556Z,101023.11
2019-04-04T06:11:48.735Z,101029.75
2019-04-04T06:14:20.713Z,101023.88
2019-04-04T06:16:51.879Z,101025.02
2019-04-04T06:19:23.770Z,101023.61
2019-04-04T06:21:54.869Z,101024.45
2019-04-04T06:24:27.291Z,101023.32
2019-04-04T06:26:58.565Z,101022.93
2019-04-04T06:29:29.552Z,101022.23
2019-04-04T06:32:01.029Z,101018.85
2019-04-04T06:34:32.111Z,101019.95
2019-04-04T06:37:03.167Z,101017.30
2019-04-04T06:39:34.069Z,101019.41
2019-04-04T06:42:05.084Z,101016.56
2019-04-04T06:44:36.021Z,101022.53
2019-04-04T06:47:07.021Z,101018.06
2019-04-04T06:49:38.058Z,101012.95
2019-04-04T06:52:09.456Z,101011.81
2019-04-04T06:54:40.480Z,101018.88
2019-04-04T06:57:11.478Z,101013.39
2019-04-04T06:59:43.382Z,101010.63
2019-04-04T07:02:15.011Z,101013.34
2019-04-04T07:04:45.929Z,101014.38
2019-04-04T07:07:16.897Z,101015.50
2019-04-04T07:09:48.274Z,101003.93
2019-04-04T07:12:26.672Z,101006.87
2019-04-04T07:14:53.135Z,101012.08
2019-04-04T07:17:24.297Z,101007.31
2019-04-04T07:19:57.447Z,101007.16
2019-04-04T07:22:28.495Z,101004.51
2019-04-04T07:25:01.072Z,100997.63
2019-04-04T07:27:32.215Z,100999.57
2019-04-04T07:30:03.589Z,101002.27
2019-04-04T07:32:34.602Z,100996.55
2019-04-04T07:35:07.330Z,101001.06
2019-04-04T07:37:38.461Z,100989.53
2019-04-04T07:40:09.707Z,100993.75
2019-04-04T07:42:40.763Z,100989.28
2019-04-04T07:45:14.274Z,100990.55
2019-04-04T07:47:46.680Z,100985.06
2019-04-04T07:50:17.235Z,100982.61
2019-04-04T07:52:48.280Z,100984.95
2019-04-04T07:55:19.259Z,100985.98
2019-04-04T07:57:51.141Z,100980.74
2019-04-04T08:00:22.544Z,100984.02
2019-04-04T08:02:53.606Z,100973.69
2019-04-04T08:05:24.608Z,100971.51
2019-04-04T08:07:55.527Z,100965.79
2019-04-04T08:10:26.437Z,100968.13
2019-04-04T08:12:57.371Z,100963.20
2019-04-04T08:15:29.024Z,100964.38
2019-04-04T08:18:00.124Z,100962.09
2019-04-04T08:20:31.948Z,100955.19
2019-04-04T08:23:03.125Z,100954.84
2019-04-04T08:25:34.030Z,100960.50
2019-04-04T08:28:05.039Z,100961.77
2019-04-04T08:30:36.102Z,100965.31
2019-04-04T08:33:07.171Z,100960.92
2019-04-04T08:35:38.224Z,100957.25
2019-04-04T08:38:09.189Z,100956.19
2019-04-04T08:40:40.171Z,100948.66
2019-04-04T08:43:11.278Z,100954.10
2019-04-04T08:45:42.347Z,100946.42
2019-04-04T08:48:13.384Z,100951.00
2019-04-04T08:50:44.550Z,100949.84
2019-04-04T08:53:15.555Z,100947.41
2019-04-04T08:55:46.663Z,100940.06
2019-04-04T08:58:17.741Z,100928.95
2019-04-04T09:00:48.796Z,100923.72
2019-04-04T09:03:19.731Z,100932.94
2019-04-04T09:05:50.709Z,100935.88
2019-04-04T09:08:21.777Z,100932.26
2019-04-04T09:10:52.771Z,100934.97
2019-04-04T09:13:23.727Z,100921.33
2019-04-04T09:15:54.769Z,100929.72
2019-04-04T09:18:25.807Z,100922.38
2019-04-04T09:20:57.540Z,100914.91
2019-04-04T09:23:28.640Z,100910.63
2019-04-04T09:26:05.452Z,100918.55
2019-04-04T09:28:32.316Z,100913.41
2019-04-04T09:31:03.423Z,100911.03
2019-04-04T09:33:34.479Z,100910.25
2019-04-04T09:36:05.475Z,100907.87
2019-04-04T09:38:37.586Z,100912.18
2019-04-04T09:41:08.687Z,100911.86
2019-04-04T09:43:39.648Z,100910.02
2019-04-04T09:46:10.633Z,100903.05
2019-04-04T09:48:41.664Z,100904.58
2019-04-04T09:51:12.693Z,100899.26
2019-04-04T09:53:52.798Z,100899.48
2019-04-04T09:56:16.264Z,100898.00
2019-04-04T09:58:47.319Z,100890.22
2019-04-04T10:01:18.373Z,100890.48
2019-04-04T10:03:49.538Z,100882.30
2019-04-04T10:06:20.528Z,100878.39
2019-04-04T10:08:51.491Z,100878.16
2019-04-04T10:11:23.956Z,100876.34
2019-04-04T10:13:54.909Z,100878.43
2019-04-04T10:16:25.923Z,100875.83
2019-04-04T10:18:58.070Z,100864.67
2019-04-04T10:21:30.027Z,100871.31
2019-04-04T10:24:01.124Z,100875.80
2019-04-04T10:26:32.105Z,100875.05
2019-04-04T10:29:03.200Z,100878.50
2019-04-04T10:31:34.129Z,100878.27
2019-04-04T10:34:05.149Z,100872.21
2019-04-04T10:36:36.149Z,100868.58
2019-04-04T10:39:10.602Z,100870.25
2019-04-04T10:41:41.963Z,100873.11
2019-04-04T10:44:12.970Z,100863.14
2019-04-04T10:46:43.924Z,100860.92
2019-04-04T10:49:14.857Z,100859.91
2019-04-04T10:51:45.656Z,100856.12
2019-04-04T10:54:16.482Z,100854.32
2019-04-04T10:56:47.442Z,100850.56
2019-04-04T10:59:18.447Z,100847.81
2019-04-04T11:01:49.351Z,100850.02
2019-04-04T11:04:20.274Z,100852.94
2019-04-04T11:06:51.265Z,100849.98
2019-04-04T11:09:22.293Z,100838.27
2019-04-04T11:11:53.312Z,100839.13
2019-04-04T11:14:25.261Z,100833.48
2019-04-04T11:16:56.503Z,100827.30
2019-04-04T11:19:31.313Z,100821.73
2019-04-04T11:22:02.021Z,100820.35
2019-04-04T11:24:33.027Z,100816.98
2019-04-04T11:27:03.943Z,100816.34
2019-04-04T11:29:34.887Z,100811.34
2019-04-04T11:32:05.798Z,100813.53
2019-04-04T11:34:36.767Z,100813.13
2019-04-04T11:37:07.792Z,100817.80
2019-04-04T11:39:38.849Z,100808.10
2019-04-04T11:42:09.935Z,100805.45
2019-04-04T11:44:40.851Z,100795.94
2019-04-04T11:47:11.815Z,100798.19
2019-04-04T11:49:42.745Z,100799.27
2019-04-04T11:52:13.730Z,100794.62
2019-04-04T11:54:58.432Z,100792.61
2019-04-04T11:57:29.344Z,100788.23
2019-04-04T12:00:00.370Z,100780.38
2019-04-04T12:02:32.695Z,100780.67
2019-04-04T12:05:04.769Z,100777.13
2019-04-04T12:07:38.247Z,100774.19
2019-04-04T12:10:08.499Z,100771.11
2019-04-04T12:12:39.433Z,100775.48
2019-04-04T12:15:10.548Z,100778.84
2019-04-04T12:17:41.442Z,100767.29
2019-04-04T12:20:12.501Z,100770.55
2019-04-04T12:22:44.279Z,100764.62
2019-04-04T12:25:15.350Z,100765.88
2019-04-04T12:27:46.285Z,100767.97
2019-04-04T12:30:17.225Z,100762.22
2019-04-04T12:32:48.194Z,100760.64
2019-04-04T12:35:19.217Z,100759.84
2019-04-04T12:37:52.543Z,100753.62
2019-04-04T12:40:23.586Z,100753.33
2019-04-04T12:42:54.551Z,100744.28
2019-04-04T12:45:25.565Z,100736.06
2019-04-04T12:47:56.484Z,100740.98
2019-04-04T12:50:27.520Z,100748.73
2019-04-04T12:52:58.482Z,100734.34
2019-04-04T12:55:29.514Z,100731.70
2019-04-04T12:58:00.546Z,100731.62
2019-04-04T13:00:31.602Z,100726.67
2019-04-04T13:03:02.660Z,100725.27
2019-04-04T13:05:33.669Z,100720.41
2019-04-04T13:08:04.581Z,100720.31
2019-04-04T13:10:35.493Z,100721.08
2019-04-04T13:13:06.487Z,100716.64
2019-04-04T13:15:37.541Z,100720.76
2019-04-04T13:18:08.490Z,100722.31
2019-04-04T13:20:39.606Z,100712.45
2019-04-04T13:23:11.569Z,100707.83
2019-04-04T13:25:43.683Z,100707.53
2019-04-04T13:28:14.730Z,100712.88
2019-04-04T13:30:45.811Z,100716.02
2019-04-04T13:33:16.809Z,100703.12
2019-04-04T13:35:47.844Z,100701.55
2019-04-04T13:38:18.949Z,100695.20
2019-04-04T13:40:49.986Z,100695.67
2019-04-04T13:43:22.534Z,100688.58
2019-04-04T13:45:55.782Z,100693.08
2019-04-04T13:48:26.419Z,100686.34
2019-04-04T13:50:57.461Z,100685.34
2019-04-04T13:53:28.637Z,100682.27
2019-04-04T13:55:59.671Z,100684.58
2019-04-04T13:58:30.734Z,100689.29
2019-04-04T14:01:01.808Z,100689.28
2019-04-04T14:03:32.917Z,100688.52
2019-04-04T14:06:03.974Z,100676.70
2019-04-04T14:08:34.985Z,100683.41
2019-04-04T14:11:06.009Z,100683.50
2019-04-04T14:13:36.951Z,100686.00
2019-04-04T14:16:08.155Z,100674.36
2019-04-04T14:18:40.172Z,100674.28
2019-04-04T14:21:11.871Z,100671.39
2019-04-04T14:23:45.303Z,100664.37
2019-04-04T14:26:16.709Z,100662.86
2019-04-04T14:28:47.710Z,100661.70
2019-04-04T14:31:18.670Z,100656.98
2019-04-04T14:33:49.742Z,100660.66
2019-04-04T14:36:20.829Z,100661.31
2019-04-04T14:38:51.962Z,100652.44
2019-04-04T14:41:23.052Z,100654.44
2019-04-04T14:43:54.033Z,100655.63
2019-04-04T14:46:26.179Z,100655.94
2019-04-04T14:48:57.147Z,100656.58
2019-04-04T14:51:28.194Z,100648.92
2019-04-04T14:53:59.203Z,100643.72
2019-04-04T14:56:30.302Z,100645.84
2019-04-04T14:59:04.311Z,100643.35
2019-04-04T15:01:35.376Z,100639.11
2019-04-04T15:04:06.369Z,100645.47
2019-04-04T15:06:37.480Z,100643.50
2019-04-04T15:09:10.140Z,100645.39
2019-04-04T15:11:41.177Z,100638.97
2019-04-04T15:14:12.463Z,100645.09
2019-04-04T15:16:43.778Z,100642.81
2019-04-04T15:19:14.832Z,100643.03
2019-04-04T15:21:45.808Z,100639.88
2019-04-04T15:24:17.526Z,100643.02
2019-04-04T15:26:48.569Z,100643.92
2019-04-04T15:29:19.584Z,100653.20
2019-04-04T15:31:50.562Z,100647.46
2019-04-04T15:34:22.551Z,100646.91
2019-04-04T15:36:53.584Z,100645.11
2019-04-04T15:39:24.608Z,100648.53
2019-04-04T15:41:55.781Z,100649.86
2019-04-04T15:44:26.660Z,100655.20
2019-04-04T15:46:57.770Z,100647.16
2019-04-04T15:49:28.738Z,100650.19
2019-04-04T15:51:59.879Z,100649.26
2019-04-04T15:54:31.083Z,100649.07
2019-04-04T15:57:02.100Z,100649.65
2019-04-04T15:59:33.217Z,100643.28
2019-04-04T16:02:04.491Z,100638.34
2019-04-04T16:04:36.630Z,100643.70
2019-04-04T16:07:07.860Z,100645.65
2019-04-04T16:09:39.192Z,100645.19
2019-04-04T16:12:10.106Z,100640.25
2019-04-04T16:14:41.025Z,100647.44
2019-04-04T16:17:12.106Z,100646.00
2019-04-04T16:19:43.114Z,100647.17
2019-04-04T16:22:14.154Z,100649.18
2019-04-04T16:24:45.963Z,100641.53
2019-04-04T16:27:16.981Z,100644.47
2019-04-04T16:29:47.984Z,100645.66
2019-04-04T16:32:18.995Z,100645.70
2019-04-04T16:34:52.441Z,100650.39
2019-04-04T16:37:22.623Z,100647.88
2019-04-04T16:39:53.558Z,100648.08
2019-04-04T16:42:24.584Z,100654.03
2019-04-04T16:44:55.615Z,100659.46
2019-04-04T16:47:28.490Z,100656.30
2019-04-04T16:49:59.697Z,100660.45
2019-04-04T16:52:30.767Z,100659.34
2019-04-04T16:55:01.747Z,100663.86
2019-04-04T16:57:32.764Z,100668.53
2019-04-04T17:00:05.776Z,100671.61
2019-04-04T17:02:36.962Z,100671.23
2019-04-04T17:05:10.777Z,100675.29
2019-04-04T17:07:40.751Z,100679.34
2019-04-04T17:10:11.711Z,100682.69
2019-04-04T17:12:42.758Z,100679.70
2019-04-04T17:15:14.049Z,100682.42
2019-04-04T17:17:45.065Z,100681.64
2019-04-04T17:20:16.065Z,100688.11
2019-04-04T17:22:47.220Z,100688.13
2019-04-04T17:25:19.367Z,100686.86
2019-04-04T17:27:50.483Z,100689.20
2019-04-04T17:30:22.006Z,100690.33
2019-04-04T17:32:53.198Z,100686.20
2019-04-04T17:35:24.618Z,100689.80
2019-04-04T17:37:55.809Z,100695.72
2019-04-04T17:40:29.399Z,100695.92
2019-04-04T17:43:00.409Z,100699.58
2019-04-04T17:45:31.584Z,100698.25
2019-04-04T17:48:02.864Z,100696.19
2019-04-04T17:50:33.948Z,100704.17
2019-04-04T17:53:07.749Z,100700.94
2019-04-04T17:55:39.194Z,100702.94
2019-04-04T17:58:10.599Z,100703.12
2019-04-04T18:00:41.709Z,100707.12
2019-04-04T18:03:12.952Z,100704.05
2019-04-04T18:05:45.020Z,100703.18
2019-04-04T18:08:15.960Z,100704.28
2019-04-04T18:10:46.921Z,100704.69
2019-04-04T18:13:18.044Z,100705.77
2019-04-04T18:15:48.985Z,100701.23
2019-04-04T18:18:20.021Z,100703.90
2019-04-04T18:20:51.940Z,100709.52
2019-04-04T18:23:22.953Z,100707.09
2019-04-04T18:25:55.199Z,100708.47
2019-04-04T18:28:26.386Z,100706.24
2019-04-04T18:30:57.403Z,100711.56
2019-04-04T18:33:28.704Z,100704.04
2019-04-04T18:36:01.696Z,100704.97
2019-04-04T18:38:33.185Z,100706.38
2019-04-04T18:41:04.239Z,100705.23
2019-04-04T18:43:35.382Z,100710.19
2019-04-04T18:46:06.533Z,100705.86
2019-04-04T18:48:37.497Z,100712.27
2019-04-04T18:51:09.483Z,100713.61
2019-04-04T18:53:40.532Z,100711.52
2019-04-04T18:56:11.498Z,100710.25
2019-04-04T18:58:42.550Z,100716.99
2019-04-04T19:01:13.835Z,100714.52
2019-04-04T19:03:44.810Z,100714.20
2019-04-04T19:06:15.761Z,100715.99
2019-04-04T19:08:46.826Z,100718.65
2019-04-04T19:11:19.466Z,100722.86
2019-04-04T19:13:50.398Z,100710.65
2019-04-04T19:16:21.310Z,100712.09
2019-04-04T19:18:52.527Z,100711.07
2019-04-04T19:21:25.104Z,100706.64
2019-04-04T19:23:56.048Z,100711.07
2019-04-04T19:26:27.910Z,100718.14
2019-04-04T19:28:59.042Z,100714.66
2019-04-04T19:31:30.187Z,100709.08
2019-04-04T19:34:01.327Z,100714.13
2019-04-04T19:36:32.355Z,100711.69
2019-04-04T19:39:05.620Z,100713.17
2019-04-04T19:41:36.847Z,100701.60
2019-04-04T19:44:10.987Z,100713.70
2019-04-04T19:46:42.164Z,100709.71
2019-04-04T19:49:13.221Z,100713.23
2019-04-04T19:51:44.259Z,100706.69
2019-04-04T19:54:15.771Z,100711.73
2019-04-04T19:56:46.804Z,100710.54
2019-04-04T19:59:17.773Z,100712.41
2019-04-04T20:01:48.814Z,100709.71
2019-04-04T20:04:19.784Z,100716.76
2019-04-04T20:06:50.725Z,100718.14
2019-04-04T20:09:21.755Z,100719.19
2019-04-04T20:11:52.679Z,100722.47
2019-04-04T20:14:27.457Z,100717.41
2019-04-04T20:16:56.390Z,100725.54
2019-04-04T20:19:27.589Z,100725.59
2019-04-04T20:21:58.665Z,100726.99
2019-04-04T20:24:29.854Z,100722.15
2019-04-04T20:27:01.769Z,100720.19
2019-04-04T20:29:33.214Z,100718.48
2019-04-04T20:32:04.659Z,100718.69
2019-04-04T20:34:37.565Z,100723.53
2019-04-04T20:37:08.605Z,100724.10
2019-04-04T20:39:39.643Z,100720.70
2019-04-04T20:42:10.666Z,100720.39
2019-04-04T20:44:41.698Z,100726.15
2019-04-04T20:47:12.726Z,100722.84
2019-04-04T20:49:43.655Z,100724.16
2019-04-04T20:52:14.559Z,100726.39
2019-04-04T20:54:45.527Z,100725.94
2019-04-04T20:57:16.444Z,100719.01
2019-04-04T20:59:47.426Z,100724.80
2019-04-04T21:02:18.360Z,100728.41
2019-04-04T21:04:49.300Z,100724.97
2019-04-04T21:07:20.372Z,100729.91
2019-04-04T21:09:51.409Z,100725.19
2019-04-04T21:12:22.346Z,100732.48
2019-04-04T21:14:53.393Z,100735.97
2019-04-04T21:17:24.311Z,100740.54
2019-04-04T21:19:55.311Z,100731.31
2019-04-04T21:22:27.818Z,100732.21
2019-04-04T21:24:59.019Z,100734.92
2019-04-04T21:27:30.875Z,100737.63
2019-04-04T21:30:04.108Z,100733.29
2019-04-04T21:32:35.103Z,100730.19
2019-04-04T21:35:06.961Z,100725.37
2019-04-04T21:37:38.153Z,100732.42
2019-04-04T21:40:09.990Z,100726.70
2019-04-04T21:42:40.906Z,100728.11
2019-04-04T21:45:11.843Z,100738.69
2019-04-04T21:47:42.884Z,100737.36
2019-04-04T21:50:13.849Z,100738.30
2019-04-04T21:52:44.771Z,100735.70
2019-04-04T21:55:15.706Z,100732.23
2019-04-04T21:57:46.738Z,100738.53
2019-04-04T22:00:17.845Z,100738.69
2019-04-04T22:02:50.381Z,100741.33
2019-04-04T22:05:21.400Z,100736.44
2019-04-04T22:07:52.287Z,100741.84
2019-04-04T22:10:23.258Z,100743.68
2019-04-04T22:12:54.277Z,100736.58
2019-04-04T22:15:25.309Z,100742.24
2019-04-04T22:17:56.257Z,100737.12
2019-04-04T22:20:27.281Z,100740.20
2019-04-04T22:22:58.193Z,100742.37
2019-04-04T22:25:37.423Z,100732.23
2019-04-04T22:28:10.546Z,100734.57
2019-04-04T22:30:41.703Z,100743.38
2019-04-04T22:33:12.617Z,100750.53
2019-04-04T22:35:43.575Z,100746.68
2019-04-04T22:38:14.477Z,100744.53
2019-04-04T22:40:45.416Z,100739.31
2019-04-04T22:43:16.354Z,100745.55
2019-04-04T22:45:47.383Z,100748.63
2019-04-04T22:48:18.393Z,100749.13
2019-04-04T22:50:49.346Z,100753.07
2019-04-04T22:53:20.318Z,100753.11
2019-04-04T22:55:51.285Z,100750.47
2019-04-04T22:58:28.076Z,100749.58
2019-04-04T23:00:54.926Z,100746.05
2019-04-04T23:03:27.281Z,100744.81
2019-04-04T23:05:58.228Z,100749.28
2019-04-04T23:08:29.160Z,100751.97
2019-04-04T23:11:00.134Z,100752.85
2019-04-04T23:13:31.130Z,100751.53
2019-04-04T23:16:02.151Z,100755.91
2019-04-04T23:18:34.144Z,100758.13
2019-04-04T23:21:05.108Z,100753.30
2019-04-04T23:23:36.035Z,100756.85
2019-04-04T23:26:06.968Z,100752.00
2019-04-04T23:28:38.775Z,100753.32
2019-04-04T23:31:10.089Z,100759.11
2019-04-04T23:33:41.198Z,100756.08
2019-04-04T23:36:12.263Z,100755.67
2019-04-04T23:38:43.152Z,100749.52
2019-04-04T23:41:14.153Z,100752.65
2019-04-04T23:43:45.056Z,100753.20
2019-04-04T23:46:16.064Z,100753.15
2019-04-04T23:48:47.005Z,100752.22
2019-04-04T23:51:17.959Z,100744.77
2019-04-04T23:53:48.898Z,100748.77
2019-04-04T23:56:19.916Z,100752.31
2019-04-04T23:58:50.908Z,100756.73
